Time;durP1;ratioP1;P1;durP2;ratioP2;P2;SDS_P1;SDS_P2;PMS_P1;PMS_P2;Temp;Humidity;BMP_temperature;BMP_pressure;BME280_temperature;BME280_humidity;BME280_pressure;Samples;Min_cycle;Max_cycle;Signal;HPM_P1;HPM_P2
2024/02/25 00:04:23;;;;;;;5.35;4.32;;;;;;;;;;10097792;28;20496;-77
2024/02/25 00:09:17;;;;;;;2.28;1.90;;;;;;;;;;10097284;28;20049;-76
2024/02/25 00:14:11;;;;;;;3.92;2.55;;;;;;;;;;10100127;28;20052;-76
2024/02/25 00:19:05;;;;;;;2.42;2.10;;;;;;;;;;10098496;28;20056;-76
2024/02/25 00:24:00;;;;;;;2.40;2.20;;;;;;;;;;10096662;28;20185;-76
2024/02/25 00:28:54;;;;;;;2.45;2.22;;;;;;;;;;10098102;28;20045;-75
2024/02/25 00:33:48;;;;;;;2.63;2.42;;;;;;;;;;10099575;28;20064;-77
2024/02/25 00:38:42;;;;;;;10.40;7.00;;;;;;;;;;10101929;28;20044;-75
2024/02/25 00:43:37;;;;;;;5.07;3.80;;;;;;;;;;10100457;28;20057;-74
2024/02/25 00:48:30;;;;;;;3.97;3.25;;;;;;;;;;10108909;28;20420;-75
2024/02/25 00:53:25;;;;;;;7.03;2.42;;;;;;;;;;10107682;28;20452;-75
2024/02/25 00:58:19;;;;;;;2.70;2.50;;;;;;;;;;10107115;28;20109;-74
2024/02/25 01:03:16;;;;;;;2.30;2.08;;;;;;;;;;10101082;28;20542;-76
2024/02/25 01:08:10;;;;;;;3.92;2.35;;;;;;;;;;10102202;28;20053;-76
2024/02/25 01:13:06;;;;;;;5.57;2.55;;;;;;;;;;10097923;28;20049;-76
2024/02/25 01:18:00;;;;;;;6.18;3.28;;;;;;;;;;10096279;28;20416;-75
2024/02/25 01:22:57;;;;;;;3.28;2.72;;;;;;;;;;10102682;28;20053;-75
2024/02/25 01:27:51;;;;;;;3.28;2.25;;;;;;;;;;10102779;28;20049;-75
2024/02/25 01:32:45;;;;;;;2.20;2.05;;;;;;;;;;10104925;28;20128;-75
2024/02/25 01:37:40;;;;;;;5.97;3.20;;;;;;;;;;10104499;28;20045;-75
2024/02/25 01:42:36;;;;;;;3.85;2.47;;;;;;;;;;10104805;28;20500;-74
2024/02/25 01:47:29;;;;;;;4.22;2.97;;;;;;;;;;10103509;28;20052;-74
2024/02/25 01:52:24;;;;;;;3.97;2.15;;;;;;;;;;10102854;28;20052;-75
2024/02/25 01:57:18;;;;;;;2.70;2.50;;;;;;;;;;10100448;28;20111;-74
2024/02/25 02:02:16;;;;;;;2.03;1.80;;;;;;;;;;10102686;28;20056;-74
2024/02/25 02:07:10;;;;;;;3.15;2.55;;;;;;;;;;10102468;28;20048;-74
2024/02/25 02:12:04;;;;;;;2.20;2.08;;;;;;;;;;10102809;28;20055;-74
2024/02/25 02:16:58;;;;;;;3.28;2.22;;;;;;;;;;10103407;28;20053;-74
2024/02/25 02:21:55;;;;;;;4.15;2.08;;;;;;;;;;10103244;28;20049;-77
2024/02/25 02:26:50;;;;;;;2.45;2.08;;;;;;;;;;10095545;28;20055;-75
2024/02/25 02:31:44;;;;;;;2.08;1.90;;;;;;;;;;10103233;28;20045;-75
2024/02/25 02:36:39;;;;;;;5.18;2.17;;;;;;;;;;10102818;28;20037;-75
2024/02/25 02:41:32;;;;;;;2.58;2.38;;;;;;;;;;10102119;28;20053;-75
2024/02/25 02:46:26;;;;;;;2.95;2.13;;;;;;;;;;10102324;28;20816;-76
2024/02/25 02:51:21;;;;;;;3.30;1.92;;;;;;;;;;10100868;28;20045;-76
2024/02/25 02:56:16;;;;;;;2.70;2.50;;;;;;;;;;10102041;28;20435;-76
2024/02/25 03:01:10;;;;;;;3.05;2.85;;;;;;;;;;10101404;28;20477;-76
2024/02/25 03:06:05;;;;;;;6.63;2.20;;;;;;;;;;10098265;28;20168;-76
2024/02/25 03:10:59;;;;;;;1.85;1.75;;;;;;;;;;10094984;28;20388;-74
2024/02/25 03:15:55;;;;;;;2.63;2.00;;;;;;;;;;10096346;28;20107;-75
2024/02/25 03:20:49;;;;;;;2.70;2.30;;;;;;;;;;10095928;28;20049;-76
2024/02/25 03:25:43;;;;;;;4.03;2.83;;;;;;;;;;10088701;28;20628;-76
2024/02/25 03:30:39;;;;;;;5.85;2.83;;;;;;;;;;10095973;28;20110;-75
2024/02/25 03:35:33;;;;;;;2.45;2.20;;;;;;;;;;10096290;28;20052;-75
2024/02/25 03:40:28;;;;;;;5.05;2.50;;;;;;;;;;10085665;28;20136;-74
2024/02/25 03:45:22;;;;;;;2.67;2.20;;;;;;;;;;10095516;28;20061;-74
2024/02/25 03:50:17;;;;;;;2.60;2.10;;;;;;;;;;10098569;28;20064;-76
2024/02/25 03:55:11;;;;;;;3.08;2.08;;;;;;;;;;10100447;28;20104;-76
2024/02/25 04:00:09;;;;;;;1.90;1.80;;;;;;;;;;10100265;28;20131;-75
2024/02/25 04:05:03;;;;;;;2.17;1.90;;;;;;;;;;10100566;28;20049;-76
2024/02/25 04:09:58;;;;;;;2.53;1.80;;;;;;;;;;10100291;28;20060;-74
2024/02/25 04:14:52;;;;;;;3.50;2.30;;;;;;;;;;10100785;28;20076;-76
2024/02/25 04:19:46;;;;;;;1.75;1.65;;;;;;;;;;10100453;28;20095;-75
2024/02/25 04:24:40;;;;;;;2.53;1.92;;;;;;;;;;10106104;28;20721;-75
2024/02/25 04:29:37;;;;;;;2.38;2.13;;;;;;;;;;10109454;28;20049;-76
2024/02/25 04:34:32;;;;;;;1.95;1.83;;;;;;;;;;10108202;28;20132;-75
2024/02/25 04:39:26;;;;;;;3.80;1.80;;;;;;;;;;10108345;28;20049;-75
2024/02/25 04:44:20;;;;;;;2.22;2.03;;;;;;;;;;10106468;28;20394;-75
2024/02/25 04:49:17;;;;;;;2.30;2.10;;;;;;;;;;10106851;28;20049;-75
2024/02/25 04:54:13;;;;;;;1.80;1.70;;;;;;;;;;10107757;28;20049;-76
2024/02/25 04:59:07;;;;;;;3.00;2.10;;;;;;;;;;10109138;28;20061;-74
2024/02/25 05:04:00;;;;;;;2.20;1.73;;;;;;;;;;10108429;28;20049;-74
2024/02/25 05:08:55;;;;;;;1.88;1.70;;;;;;;;;;10108096;28;20064;-75
2024/02/25 05:13:50;;;;;;;2.50;1.80;;;;;;;;;;10107906;28;20527;-75
2024/02/25 05:18:44;;;;;;;5.35;2.22;;;;;;;;;;10107823;28;20098;-75
2024/02/25 05:23:38;;;;;;;4.25;1.70;;;;;;;;;;10107794;28;20508;-74
2024/02/25 05:28:33;;;;;;;1.92;1.83;;;;;;;;;;10108436;28;20099;-74
2024/02/25 05:33:28;;;;;;;2.35;2.10;;;;;;;;;;10105165;28;20056;-75
2024/02/25 05:38:22;;;;;;;1.67;1.55;;;;;;;;;;10104766;28;20127;-75
2024/02/25 05:43:16;;;;;;;1.60;1.50;;;;;;;;;;10105722;28;20092;-76
2024/02/25 05:48:10;;;;;;;1.90;1.80;;;;;;;;;;10106514;28;20616;-76
2024/02/25 05:53:04;;;;;;;1.60;1.50;;;;;;;;;;10095223;28;20049;-76
2024/02/25 05:57:58;;;;;;;2.47;1.45;;;;;;;;;;10105839;28;20087;-76
2024/02/25 06:02:53;;;;;;;3.05;1.50;;;;;;;;;;10105662;28;20107;-75
2024/02/25 06:07:47;;;;;;;1.70;1.60;;;;;;;;;;10105626;28;20520;-74
2024/02/25 06:12:42;;;;;;;1.50;1.40;;;;;;;;;;10105409;28;20049;-75
2024/02/25 06:17:39;;;;;;;3.55;1.42;;;;;;;;;;10103717;28;20056;-76
2024/02/25 06:22:35;;;;;;;4.80;3.58;;;;;;;;;;10105166;28;20048;-76
2024/02/25 06:27:29;;;;;;;4.45;3.90;;;;;;;;;;10105397;28;20053;-76
2024/02/25 06:32:24;;;;;;;38.30;34.15;;;;;;;;;;10103876;28;20047;-76
2024/02/25 06:37:18;;;;;;;13.52;11.68;;;;;;;;;;10104740;28;20041;-76
2024/02/25 06:42:15;;;;;;;66.05;50.30;;;;;;;;;;10103621;28;20501;-76
2024/02/25 06:47:09;;;;;;;24.40;21.08;;;;;;;;;;10104077;28;20148;-77
2024/02/25 06:52:04;;;;;;;27.33;20.05;;;;;;;;;;10104546;28;20045;-76
2024/02/25 06:56:58;;;;;;;18.85;12.18;;;;;;;;;;10104535;28;20424;-78
2024/02/25 07:01:52;;;;;;;3.45;3.05;;;;;;;;;;10105027;28;20049;-78
2024/02/25 07:06:46;;;;;;;4.22;3.83;;;;;;;;;;10105272;28;20475;-77
2024/02/25 07:11:42;;;;;;;4.70;3.58;;;;;;;;;;10096071;28;20416;-77
2024/02/25 07:16:42;;;;;;;12.55;7.40;;;;;;;;;;10103228;28;20065;-78
2024/02/25 07:21:37;;;;;;;2.80;2.47;;;;;;;;;;10098874;28;20045;-76
2024/02/25 07:26:31;;;;;;;8.95;7.35;;;;;;;;;;10105249;28;20055;-78
2024/02/25 07:31:25;;;;;;;3.03;2.67;;;;;;;;;;10105788;28;20061;-76
2024/02/25 07:36:19;;;;;;;4.30;2.83;;;;;;;;;;10103800;28;20142;-78
2024/02/25 07:41:13;;;;;;;12.18;6.63;;;;;;;;;;10102484;28;20053;-77
2024/02/25 07:46:07;;;;;;;6.55;3.90;;;;;;;;;;10105186;28;20063;-76
2024/02/25 07:51:02;;;;;;;13.55;8.95;;;;;;;;;;10105088;28;20059;-77
2024/02/25 07:55:57;;;;;;;4.20;3.80;;;;;;;;;;10107123;28;20057;-77
2024/02/25 08:00:50;;;;;;;1.55;1.40;;;;;;;;;;10109302;28;20049;-77
2024/02/25 08:05:46;;;;;;;4.20;2.63;;;;;;;;;;10109143;28;20045;-77
2024/02/25 08:10:40;;;;;;;11.23;6.03;;;;;;;;;;10110392;28;20056;-77
2024/02/25 08:15:34;;;;;;;5.57;4.63;;;;;;;;;;10113300;28;20069;-77
2024/02/25 08:20:29;;;;;;;4.03;3.33;;;;;;;;;;10112462;28;20041;-77
2024/02/25 08:25:23;;;;;;;3.25;2.88;;;;;;;;;;10111634;28;20334;-77
2024/02/25 08:30:17;;;;;;;4.15;2.97;;;;;;;;;;10111374;28;20056;-76
2024/02/25 08:35:12;;;;;;;3.08;2.47;;;;;;;;;;10110870;28;20057;-76
2024/02/25 08:40:08;;;;;;;6.43;3.67;;;;;;;;;;10110982;28;20060;-76
2024/02/25 08:45:03;;;;;;;3.58;3.22;;;;;;;;;;10110329;28;20088;-76
2024/02/25 08:49:58;;;;;;;4.82;3.15;;;;;;;;;;10110148;28;20053;-76
2024/02/25 08:54:52;;;;;;;7.45;3.70;;;;;;;;;;10109971;28;20451;-77
2024/02/25 08:59:46;;;;;;;3.92;3.50;;;;;;;;;;10109764;28;20053;-77
2024/02/25 09:04:41;;;;;;;3.60;2.95;;;;;;;;;;10109737;28;20041;-77
2024/02/25 09:09:36;;;;;;;2.80;2.60;;;;;;;;;;10109551;28;20135;-77
2024/02/25 09:14:30;;;;;;;3.67;3.05;;;;;;;;;;10109758;28;20056;-77
2024/02/25 09:19:24;;;;;;;2.38;2.17;;;;;;;;;;10109542;28;20049;-76
2024/02/25 09:24:19;;;;;;;2.20;2.00;;;;;;;;;;10108793;28;20425;-75
2024/02/25 09:29:14;;;;;;;3.92;2.75;;;;;;;;;;10108704;28;20076;-76
2024/02/25 09:34:11;;;;;;;2.63;2.30;;;;;;;;;;10069557;28;20061;-76
2024/02/25 09:39:05;;;;;;;3.13;2.03;;;;;;;;;;10067291;28;20045;-76
2024/02/25 09:43:59;;;;;;;2.72;2.53;;;;;;;;;;10060793;28;20060;-77
2024/02/25 09:48:54;;;;;;;2.50;2.28;;;;;;;;;;10051804;28;20054;-76
2024/02/25 09:54:08;;;;;;;2.97;2.13;;;;;;;;;;10061202;28;20456;-77
2024/02/25 09:59:02;;;;;;;2.10;1.85;;;;;;;;;;10065813;28;20061;-77
2024/02/25 10:03:56;;;;;;;2.78;2.45;;;;;;;;;;10065510;28;20516;-78
2024/02/25 10:08:51;;;;;;;2.20;2.00;;;;;;;;;;10064021;28;20049;-78
2024/02/25 10:13:47;;;;;;;2.72;1.83;;;;;;;;;;10050908;28;20059;-78
2024/02/25 10:18:42;;;;;;;3.88;1.70;;;;;;;;;;10065065;28;20532;-78
2024/02/25 10:23:35;;;;;;;2.75;1.35;;;;;;;;;;10067794;28;20057;-77
2024/02/25 10:28:29;;;;;;;1.75;1.65;;;;;;;;;;10066763;28;20053;-78
2024/02/25 10:33:23;;;;;;;2.30;2.10;;;;;;;;;;10067955;28;20437;-77
2024/02/25 10:38:20;;;;;;;3.30;2.15;;;;;;;;;;10051532;28;20115;-78
2024/02/25 10:43:14;;;;;;;2.22;2.00;;;;;;;;;;10060113;28;20084;-77
2024/02/25 10:48:14;;;;;;;3.03;2.33;;;;;;;;;;10060384;28;20061;-78
2024/02/25 10:53:12;;;;;;;2.55;2.35;;;;;;;;;;10065053;28;20053;-75
2024/02/25 10:58:05;;;;;;;;;;;;;;;;;;10066974;28;20103;-78
2024/02/25 11:03:00;;;;;;;4.35;2.42;;;;;;;;;;10066088;28;20039;-78
2024/02/25 11:08:01;;;;;;;3.60;2.97;;;;;;;;;;10061784;28;20110;-78
2024/02/25 11:12:54;;;;;;;2.25;1.70;;;;;;;;;;10057005;28;20390;-77
2024/02/25 11:17:50;;;;;;;3.70;2.35;;;;;;;;;;10057936;28;20517;-79
2024/02/25 11:22:44;;;;;;;3.10;2.22;;;;;;;;;;10058586;28;20037;-78
2024/02/25 11:28:09;;;;;;;2.47;2.15;;;;;;;;;;10056943;28;20049;-79
2024/02/25 11:33:23;;;;;;;2.80;2.50;;;;;;;;;;10057235;28;20049;-78
2024/02/25 11:38:23;;;;;;;2.33;1.77;;;;;;;;;;10054304;28;20051;-79
2024/02/25 11:43:17;;;;;;;3.53;2.10;;;;;;;;;;10055645;28;20417;-79
2024/02/25 11:48:11;;;;;;;2.63;2.25;;;;;;;;;;10056754;28;20061;-79
2024/02/25 11:53:06;;;;;;;2.70;1.88;;;;;;;;;;10059357;28;20469;-79
2024/02/25 11:58:00;;;;;;;2.28;2.03;;;;;;;;;;10056200;28;20072;-80
2024/02/25 12:02:54;;;;;;;1.83;1.73;;;;;;;;;;10056408;28;20482;-78
2024/02/25 12:08:00;;;;;;;2.00;1.80;;;;;;;;;;10061382;28;20049;-78
2024/02/25 12:12:54;;;;;;;2.35;1.52;;;;;;;;;;10062596;28;20076;-77
2024/02/25 12:17:48;;;;;;;2.88;1.77;;;;;;;;;;10063554;28;20072;-79
2024/02/25 12:22:47;;;;;;;3.25;2.20;;;;;;;;;;10056908;28;20119;-78
2024/02/25 12:27:41;;;;;;;2.55;1.83;;;;;;;;;;10061890;28;20521;-78
2024/02/25 12:32:35;;;;;;;1.75;1.55;;;;;;;;;;10061577;28;20049;-78
2024/02/25 12:37:31;;;;;;;2.17;1.70;;;;;;;;;;10056840;28;20049;-77
2024/02/25 12:42:27;;;;;;;2.38;1.98;;;;;;;;;;10063321;28;20417;-79
2024/02/25 12:47:20;;;;;;;2.60;1.98;;;;;;;;;;10068456;28;20049;-80
2024/02/25 12:52:15;;;;;;;2.00;1.80;;;;;;;;;;10068610;28;20107;-78
2024/02/25 12:57:11;;;;;;;2.67;1.90;;;;;;;;;;10068909;28;20056;-78
2024/02/25 13:02:10;;;;;;;3.50;2.33;;;;;;;;;;10067967;28;20404;-78
2024/02/25 13:07:04;;;;;;;2.78;1.92;;;;;;;;;;10064064;28;20417;-79
2024/02/25 13:12:02;;;;;;;2.17;1.73;;;;;;;;;;10068261;28;20059;-76
2024/02/25 13:16:57;;;;;;;2.67;2.33;;;;;;;;;;10067353;28;20065;-76
2024/02/25 13:21:51;;;;;;;2.55;2.35;;;;;;;;;;10066481;28;20627;-75
2024/02/25 13:26:45;;;;;;;5.32;2.60;;;;;;;;;;10067474;28;20045;-76
2024/02/25 13:31:38;;;;;;;3.80;3.08;;;;;;;;;;10057732;28;20050;-76
2024/02/25 13:36:36;;;;;;;4.80;2.38;;;;;;;;;;10066719;28;20073;-77
2024/02/25 13:41:31;;;;;;;5.78;2.97;;;;;;;;;;10065009;28;20467;-75
2024/02/25 13:46:28;;;;;;;7.15;3.20;;;;;;;;;;10066192;28;20088;-76
2024/02/25 13:51:23;;;;;;;3.55;2.40;;;;;;;;;;10065540;28;20053;-76
2024/02/25 13:56:17;;;;;;;3.72;2.33;;;;;;;;;;10062345;28;20049;-76
2024/02/25 14:01:12;;;;;;;2.53;2.33;;;;;;;;;;10062254;28;20417;-76
2024/02/25 14:06:06;;;;;;;2.40;2.00;;;;;;;;;;10048954;28;20163;-76
2024/02/25 14:11:01;;;;;;;2.85;2.40;;;;;;;;;;10064797;28;20551;-75
2024/02/25 14:15:55;;;;;;;5.13;4.63;;;;;;;;;;10065919;28;20136;-75
2024/02/25 14:20:52;;;;;;;2.60;2.40;;;;;;;;;;10066164;28;20046;-76
2024/02/25 14:25:51;;;;;;;4.30;3.13;;;;;;;;;;10065956;28;20124;-75
2024/02/25 14:30:46;;;;;;;3.33;2.92;;;;;;;;;;10065546;28;20604;-75
2024/02/25 14:35:41;;;;;;;3.67;2.83;;;;;;;;;;10064375;28;20049;-75
2024/02/25 14:40:35;;;;;;;3.40;2.50;;;;;;;;;;10064415;28;20050;-75
2024/02/25 14:45:29;;;;;;;3.13;2.70;;;;;;;;;;10064909;28;20580;-76
2024/02/25 14:50:22;;;;;;;3.03;2.63;;;;;;;;;;10065450;28;20091;-76
2024/02/25 14:55:16;;;;;;;2.92;2.65;;;;;;;;;;10064656;28;20073;-75
2024/02/25 15:00:15;;;;;;;2.97;2.20;;;;;;;;;;10062897;28;20095;-76
2024/02/25 15:05:10;;;;;;;2.60;2.40;;;;;;;;;;10064154;28;20163;-75
2024/02/25 15:10:06;;;;;;;2.50;2.30;;;;;;;;;;10061134;28;20085;-75
2024/02/25 15:15:01;;;;;;;3.28;2.50;;;;;;;;;;10064231;28;20057;-74
2024/02/25 15:19:57;;;;;;;4.45;3.72;;;;;;;;;;10062738;28;20061;-75
2024/02/25 15:24:51;;;;;;;5.72;4.30;;;;;;;;;;10063122;28;20044;-76
2024/02/25 15:29:45;;;;;;;3.47;3.15;;;;;;;;;;10062435;28;20050;-74
2024/02/25 15:34:39;;;;;;;5.85;3.05;;;;;;;;;;10060740;28;20046;-75
2024/02/25 15:39:37;;;;;;;6.78;4.00;;;;;;;;;;10063138;28;20055;-76
2024/02/25 15:44:32;;;;;;;2.75;2.50;;;;;;;;;;10061545;28;20049;-74
2024/02/25 15:49:26;;;;;;;5.07;2.92;;;;;;;;;;10060566;28;20049;-76
2024/02/25 15:54:22;;;;;;;5.22;2.60;;;;;;;;;;10062623;28;20088;-76
2024/02/25 15:59:16;;;;;;;3.85;3.00;;;;;;;;;;10062797;28;20057;-75
2024/02/25 16:04:09;;;;;;;3.22;2.83;;;;;;;;;;10062634;28;20061;-75
2024/02/25 16:09:04;;;;;;;5.72;3.30;;;;;;;;;;10062758;28;20152;-75
2024/02/25 16:13:58;;;;;;;2.90;2.25;;;;;;;;;;10063266;28;20073;-75
2024/02/25 16:18:52;;;;;;;5.88;3.10;;;;;;;;;;10068393;28;20145;-77
2024/02/25 16:23:46;;;;;;;4.25;3.85;;;;;;;;;;10069738;28;20050;-76
2024/02/25 16:28:41;;;;;;;5.80;5.20;;;;;;;;;;10069522;28;20077;-76
2024/02/25 16:33:35;;;;;;;6.05;4.00;;;;;;;;;;10069684;28;20424;-74
2024/02/25 16:38:30;;;;;;;4.38;3.80;;;;;;;;;;10068817;28;20187;-77
2024/02/25 16:43:24;;;;;;;5.78;5.22;;;;;;;;;;10069930;28;20057;-77
2024/02/25 16:48:17;;;;;;;3.78;2.75;;;;;;;;;;10066467;28;20052;-74
2024/02/25 16:53:12;;;;;;;5.03;2.85;;;;;;;;;;10068176;28;20046;-74
2024/02/25 16:58:06;;;;;;;6.88;6.25;;;;;;;;;;10066921;28;20506;-74
2024/02/25 17:03:00;;;;;;;4.53;3.25;;;;;;;;;;10061399;28;20171;-75
2024/02/25 17:07:54;;;;;;;5.20;3.55;;;;;;;;;;10064945;28;20428;-74
2024/02/25 17:12:49;;;;;;;11.57;5.95;;;;;;;;;;10066906;28;20044;-76
2024/02/25 17:17:44;;;;;;;22.05;13.00;;;;;;;;;;10067547;28;20509;-75
2024/02/25 17:22:38;;;;;;;10.43;9.48;;;;;;;;;;10066137;28;20056;-75
2024/02/25 17:27:34;;;;;;;7.78;6.15;;;;;;;;;;10061249;28;20042;-77
2024/02/25 17:32:28;;;;;;;25.60;14.75;;;;;;;;;;10065233;28;20523;-75
2024/02/25 17:37:22;;;;;;;6.05;5.40;;;;;;;;;;10061808;28;20053;-75
2024/02/25 17:42:16;;;;;;;5.90;4.78;;;;;;;;;;10062246;28;20053;-76
2024/02/25 17:47:11;;;;;;;7.18;5.95;;;;;;;;;;10066862;28;20049;-75
2024/02/25 17:52:05;;;;;;;5.78;4.78;;;;;;;;;;10065727;28;20474;-76
2024/02/25 17:57:00;;;;;;;10.13;6.80;;;;;;;;;;10060220;28;20133;-75
2024/02/25 18:01:54;;;;;;;7.82;6.22;;;;;;;;;;10060651;28;20052;-75
2024/02/25 18:06:49;;;;;;;5.22;4.72;;;;;;;;;;10062130;28;20413;-75
2024/02/25 18:11:53;;;;;;;8.80;6.80;;;;;;;;;;10060644;28;20046;-75
2024/02/25 18:16:49;;;;;;;10.60;9.30;;;;;;;;;;10065739;28;20061;-75
2024/02/25 18:21:46;;;;;;;6.95;5.97;;;;;;;;;;10045269;28;20050;-77
2024/02/25 18:26:43;;;;;;;9.65;8.32;;;;;;;;;;10064729;28;20051;-79
2024/02/25 18:31:39;;;;;;;18.02;13.98;;;;;;;;;;10053834;28;20068;-78
2024/02/25 18:36:33;;;;;;;13.50;7.97;;;;;;;;;;10056772;28;20049;-79
2024/02/25 18:41:27;;;;;;;21.80;18.40;;;;;;;;;;10058444;28;20057;-78
2024/02/25 18:46:20;;;;;;;11.48;8.18;;;;;;;;;;10058044;28;20095;-79
2024/02/25 18:51:16;;;;;;;10.98;9.50;;;;;;;;;;10055943;28;20042;-81
2024/02/25 18:56:11;;;;;;;9.77;7.55;;;;;;;;;;10061713;28;20033;-83
2024/02/25 19:01:06;;;;;;;6.57;5.75;;;;;;;;;;10058181;28;20565;-80
2024/02/25 19:06:00;;;;;;;7.03;5.25;;;;;;;;;;10058815;28;20057;-81
2024/02/25 19:10:55;;;;;;;9.73;8.65;;;;;;;;;;10060413;28;20052;-78
2024/02/25 19:15:50;;;;;;;27.08;17.02;;;;;;;;;;10052174;28;20045;-80
2024/02/25 19:20:45;;;;;;;25.13;15.68;;;;;;;;;;10067134;28;20045;-77
2024/02/25 19:25:40;;;;;;;10.32;8.50;;;;;;;;;;10066474;28;20081;-79
2024/02/25 19:30:33;;;;;;;9.48;7.95;;;;;;;;;;10065840;28;20128;-80
2024/02/25 19:35:27;;;;;;;11.90;5.95;;;;;;;;;;10049499;28;20053;-79
2024/02/25 19:40:21;;;;;;;5.65;5.13;;;;;;;;;;10063955;28;20056;-80
2024/02/25 19:45:14;;;;;;;5.47;4.97;;;;;;;;;;10049087;28;20053;-79
2024/02/25 19:50:14;;;;;;;5.35;4.85;;;;;;;;;;10067566;28;20049;-79
2024/02/25 19:55:10;;;;;;;4.88;4.20;;;;;;;;;;10064549;28;20263;-77
2024/02/25 20:00:13;;;;;;;6.68;5.00;;;;;;;;;;10065274;28;20050;-80
2024/02/25 20:05:10;;;;;;;7.57;5.55;;;;;;;;;;10077019;28;20057;-78
2024/02/25 20:10:09;;;;;;;16.85;11.93;;;;;;;;;;10065248;28;20045;-79
2024/02/25 20:15:05;;;;;;;7.80;5.25;;;;;;;;;;10057794;28;20045;-80
2024/02/25 20:20:00;;;;;;;6.85;5.30;;;;;;;;;;10071770;28;20072;-80
2024/02/25 20:24:54;;;;;;;10.23;6.28;;;;;;;;;;10062235;28;20041;-81
2024/02/25 20:29:52;;;;;;;5.95;4.30;;;;;;;;;;10068877;28;20053;-81
2024/02/25 20:34:50;;;;;;;3.70;3.40;;;;;;;;;;10062187;28;20042;-80
2024/02/25 20:39:44;;;;;;;3.97;2.80;;;;;;;;;;10073213;28;20065;-79
2024/02/25 20:44:39;;;;;;;4.10;3.40;;;;;;;;;;10060988;28;20060;-79
2024/02/25 20:49:33;;;;;;;3.95;2.53;;;;;;;;;;10065115;28;20131;-80
2024/02/25 20:54:27;;;;;;;2.25;2.00;;;;;;;;;;10067441;28;20049;-80
2024/02/25 20:59:21;;;;;;;3.42;2.92;;;;;;;;;;10082390;28;20125;-80
2024/02/25 21:04:16;;;;;;;14.05;8.88;;;;;;;;;;10085304;28;20124;-79
2024/02/25 21:09:10;;;;;;;4.07;3.65;;;;;;;;;;10073098;28;20052;-80
2024/02/25 21:14:05;;;;;;;4.30;3.55;;;;;;;;;;10063888;28;20050;-80
2024/02/25 21:19:03;;;;;;;6.13;3.22;;;;;;;;;;10063525;28;20041;-80
2024/02/25 21:23:57;;;;;;;5.45;3.20;;;;;;;;;;10059618;28;20050;-79
2024/02/25 21:28:52;;;;;;;3.63;2.50;;;;;;;;;;10066664;28;20568;-81
2024/02/25 21:33:46;;;;;;;3.63;2.75;;;;;;;;;;10065312;28;20056;-80
2024/02/25 21:38:40;;;;;;;3.08;2.75;;;;;;;;;;10049049;28;20144;-79
2024/02/25 21:43:34;;;;;;;5.47;2.85;;;;;;;;;;10058190;28;20057;-78
2024/02/25 21:48:28;;;;;;;5.00;3.55;;;;;;;;;;10069273;28;20069;-79
2024/02/25 21:53:29;;;;;;;2.70;2.45;;;;;;;;;;10065433;28;20059;-79
2024/02/25 21:58:22;;;;;;;2.85;2.40;;;;;;;;;;10065492;28;20057;-80
2024/02/25 22:03:16;;;;;;;2.33;2.13;;;;;;;;;;10061751;28;20064;-79
2024/02/25 22:08:10;;;;;;;2.88;1.70;;;;;;;;;;10054680;28;20049;-81
2024/02/25 22:13:05;;;;;;;1.92;1.73;;;;;;;;;;10063352;28;20490;-81
2024/02/25 22:18:00;;;;;;;1.50;1.40;;;;;;;;;;10058663;28;20054;-80
2024/02/25 22:22:53;;;;;;;2.25;1.95;;;;;;;;;;10064199;28;20049;-84
2024/02/25 22:27:49;;;;;;;2.33;2.05;;;;;;;;;;10050430;28;20099;-81
2024/02/25 22:32:43;;;;;;;3.72;1.63;;;;;;;;;;10068283;28;20080;-82
2024/02/25 22:37:41;;;;;;;1.52;1.42;;;;;;;;;;10068412;28;20045;-85
2024/02/25 22:42:35;;;;;;;2.58;1.75;;;;;;;;;;10067607;28;20064;-78
2024/02/25 22:47:28;;;;;;;2.17;1.70;;;;;;;;;;10064061;28;20072;-77
2024/02/25 22:52:22;;;;;;;1.63;1.52;;;;;;;;;;10066694;28;20128;-81
2024/02/25 22:57:17;;;;;;;4.65;1.90;;;;;;;;;;10062476;28;20402;-80
2024/02/25 23:02:11;;;;;;;2.03;1.83;;;;;;;;;;10054346;28;20450;-80
2024/02/25 23:07:06;;;;;;;2.08;1.80;;;;;;;;;;10057517;28;20064;-81
2024/02/25 23:12:01;;;;;;;2.90;2.10;;;;;;;;;;10058316;28;20064;-82
2024/02/25 23:16:55;;;;;;;2.40;2.20;;;;;;;;;;10063674;28;20108;-77
2024/02/25 23:21:49;;;;;;;2.60;2.40;;;;;;;;;;10060340;28;20552;-74
2024/02/25 23:26:43;;;;;;;4.43;2.30;;;;;;;;;;10065568;28;20106;-74
2024/02/25 23:31:37;;;;;;;2.58;2.35;;;;;;;;;;10059574;28;20061;-75
2024/02/25 23:36:32;;;;;;;3.10;2.13;;;;;;;;;;10056561;28;20060;-77
2024/02/25 23:41:29;;;;;;;3.35;1.58;;;;;;;;;;10057795;28;20054;-76
2024/02/25 23:46:23;;;;;;;9.85;2.72;;;;;;;;;;10058529;28;20408;-77
2024/02/25 23:51:17;;;;;;;6.10;3.17;;;;;;;;;;10063553;28;20441;-78
2024/02/25 23:56:11;;;;;;;3.05;2.75;;;;;;;;;;10065420;28;20053;-76
